createdAt,value
2022-08-14T00:02:19.324Z,2.39
2022-08-14T00:07:25.739Z,3.36
2022-08-14T00:12:33.670Z,3.34
2022-08-14T00:17:48.222Z,3.45
2022-08-14T00:22:56.830Z,2.10
2022-08-14T00:27:54.110Z,3.34
2022-08-14T00:32:56.726Z,2.46
2022-08-14T00:38:01.955Z,3.65
2022-08-14T00:43:08.075Z,2.50
2022-08-14T00:48:15.008Z,2.45
2022-08-14T00:53:22.086Z,3.61
2022-08-14T00:58:33.123Z,2.51
2022-08-14T01:03:36.047Z,2.51
2022-08-14T01:08:52.473Z,2.78
2022-08-14T01:13:50.825Z,2.79
2022-08-14T01:19:01.053Z,2.47
2022-08-14T01:23:58.880Z,2.58
2022-08-14T01:29:04.674Z,2.58
2022-08-14T01:35:17.750Z,2.84
2022-08-14T01:39:16.313Z,3.87
2022-08-14T01:44:31.963Z,2.72
2022-08-14T01:49:33.533Z,3.80
2022-08-14T01:54:38.099Z,2.69
2022-08-14T01:59:40.072Z,2.85
2022-08-14T02:04:57.183Z,4.53
2022-08-14T02:09:56.032Z,3.03
2022-08-14T02:15:00.481Z,3.08
2022-08-14T02:20:03.233Z,4.60
2022-08-14T02:25:09.088Z,3.27
2022-08-14T02:30:14.842Z,3.13
2022-08-14T02:35:22.362Z,3.15
2022-08-14T02:40:32.388Z,3.37
2022-08-14T02:45:38.590Z,3.20
2022-08-14T02:50:40.061Z,4.69
2022-08-14T02:55:46.300Z,3.14
2022-08-14T03:00:52.780Z,4.61
2022-08-14T03:05:58.538Z,3.28
2022-08-14T03:11:04.837Z,6.33
2022-08-14T03:16:20.183Z,4.03
2022-08-14T03:21:18.436Z,3.71
2022-08-14T03:26:30.307Z,4.01
2022-08-14T03:31:29.590Z,5.91
2022-08-14T03:39:09.635Z,4.33
2022-08-14T03:41:41.184Z,4.35
2022-08-14T03:46:55.033Z,4.21
2022-08-14T03:51:53.101Z,4.55
2022-08-14T03:56:58.933Z,6.17
2022-08-14T04:02:33.408Z,6.27
2022-08-14T04:07:11.058Z,4.44
2022-08-14T04:12:17.377Z,4.52
2022-08-14T04:17:23.233Z,4.55
2022-08-14T04:22:29.153Z,4.57
2022-08-14T04:28:01.894Z,4.65
2022-08-14T04:32:58.270Z,5.07
2022-08-14T04:37:53.735Z,7.81
2022-08-14T04:42:54.266Z,7.76
2022-08-14T04:48:00.589Z,4.96
2022-08-14T04:53:07.065Z,4.72
2022-08-14T04:58:21.800Z,4.69
2022-08-14T05:03:18.762Z,4.97
2022-08-14T05:08:31.674Z,7.30
2022-08-14T05:13:42.331Z,4.93
2022-08-14T05:19:16.969Z,7.74
2022-08-14T05:23:42.670Z,5.14
2022-08-14T05:28:48.517Z,5.29
2022-08-14T05:33:56.596Z,7.08
2022-08-14T05:39:01.130Z,4.07
2022-08-14T05:44:06.978Z,3.68
2022-08-14T05:49:14.497Z,5.46
2022-08-14T05:54:26.785Z,5.33
2022-08-14T05:59:36.440Z,3.82
2022-08-14T06:04:33.586Z,3.80
2022-08-14T06:09:40.530Z,4.43
2022-08-14T06:14:45.516Z,4.52
2022-08-14T06:19:51.449Z,4.35
2022-08-14T06:24:57.670Z,4.43
2022-08-14T06:30:04.087Z,4.64
2022-08-14T06:35:13.599Z,4.57
2022-08-14T06:40:26.979Z,4.62
2022-08-14T06:45:26.508Z,4.61
2022-08-14T06:50:29.960Z,4.38
2022-08-14T06:55:34.445Z,4.26
2022-08-14T07:00:40.203Z,4.44
2022-08-14T07:05:49.301Z,4.25
2022-08-14T07:10:52.272Z,4.25
2022-08-14T07:15:58.811Z,4.54
2022-08-14T07:21:04.910Z,6.38
2022-08-14T07:26:12.712Z,4.29
2022-08-14T07:31:17.966Z,6.24
2022-08-14T07:36:27.225Z,4.33
2022-08-14T07:41:52.427Z,4.11
2022-08-14T07:46:37.785Z,4.06
2022-08-14T07:51:43.616Z,4.33
2022-08-14T07:56:51.267Z,4.29
2022-08-14T08:01:58.607Z,3.92
2022-08-14T08:07:03.240Z,6.07
2022-08-14T08:12:14.434Z,3.86
2022-08-14T08:17:16.974Z,3.94
2022-08-14T08:22:32.784Z,4.25
2022-08-14T08:27:32.351Z,5.55
2022-08-14T08:32:41.767Z,4.59
2022-08-14T08:37:49.009Z,4.45
2022-08-14T08:42:59.816Z,4.35
2022-08-14T08:48:18.431Z,6.05
2022-08-14T08:53:19.979Z,4.99
2022-08-14T08:58:25.010Z,5.63
2022-08-14T09:03:27.340Z,5.99
2022-08-14T09:08:30.874Z,3.98
2022-08-14T09:13:30.901Z,3.84
2022-08-14T09:18:39.898Z,3.84
2022-08-14T09:24:26.651Z,3.85
2022-08-14T09:28:57.361Z,4.51
2022-08-14T09:33:57.474Z,3.57
2022-08-14T09:39:06.558Z,3.31
2022-08-14T09:44:06.453Z,3.15
2022-08-14T09:49:16.739Z,3.17
2022-08-14T09:54:24.390Z,3.16
2022-08-14T09:59:26.653Z,3.14
2022-08-14T10:04:34.489Z,3.39
2022-08-14T10:09:29.263Z,4.47
2022-08-14T10:14:39.951Z,2.97
2022-08-14T10:19:43.265Z,3.17
2022-08-14T10:24:44.027Z,3.04
2022-08-14T10:29:45.468Z,2.88
2022-08-14T10:34:43.396Z,2.87
2022-08-14T10:40:10.401Z,3.06
2022-08-14T10:45:03.793Z,3.26
2022-08-14T10:50:02.470Z,3.09
2022-08-14T10:55:09.223Z,3.29
2022-08-14T11:00:20.599Z,3.65
2022-08-14T11:05:27.129Z,2.79
2022-08-14T11:10:42.800Z,3.48
2022-08-14T11:15:39.765Z,3.00
2022-08-14T11:20:51.347Z,3.05
2022-08-14T11:25:53.537Z,3.34
2022-08-14T11:30:54.687Z,3.23
2022-08-14T11:35:59.663Z,2.70
2022-08-14T11:40:56.871Z,2.97
2022-08-14T11:45:56.555Z,2.85
2022-08-14T11:51:04.429Z,2.61
2022-08-14T11:56:15.909Z,2.68
2022-08-14T12:01:31.110Z,2.51
2022-08-14T12:06:39.479Z,2.74
2022-08-14T12:11:44.260Z,2.51
2022-08-14T12:16:43.414Z,2.74
2022-08-14T12:21:48.140Z,2.92
2022-08-14T12:26:53.564Z,2.65
2022-08-14T12:32:00.670Z,2.13
2022-08-14T12:37:09.660Z,2.59
2022-08-14T12:42:34.260Z,2.63
2022-08-14T12:47:22.644Z,2.56
2022-08-14T12:52:45.181Z,2.39
2022-08-14T12:57:40.328Z,2.36
2022-08-14T13:02:48.419Z,2.30
2022-08-14T13:08:10.693Z,2.43
2022-08-14T13:13:15.161Z,2.51
2022-08-14T13:18:07.079Z,1.87
2022-08-14T13:23:30.420Z,2.26
2022-08-14T13:28:32.901Z,2.22
2022-08-14T13:33:30.742Z,2.12
2022-08-14T13:38:31.505Z,2.14
2022-08-14T13:43:49.306Z,2.16
2022-08-14T13:48:41.992Z,2.42
2022-08-14T13:53:33.613Z,2.27
2022-08-14T13:58:34.445Z,2.24
2022-08-14T14:03:34.288Z,2.27
2022-08-14T14:08:45.816Z,4.84
2022-08-14T14:13:49.800Z,2.12
2022-08-14T14:19:09.507Z,2.18
2022-08-14T14:23:52.407Z,2.47
2022-08-14T14:29:00.924Z,2.42
2022-08-14T14:34:19.904Z,2.44
2022-08-14T14:39:37.452Z,2.53
2022-08-14T14:44:18.747Z,2.39
2022-08-14T14:49:51.152Z,2.75
2022-08-14T14:54:39.136Z,2.48
2022-08-14T14:59:45.901Z,3.23
2022-08-14T15:04:59.325Z,2.54
2022-08-14T15:09:55.309Z,2.82
2022-08-14T15:15:08.688Z,2.84
2022-08-14T15:20:17.294Z,2.86
2022-08-14T15:25:24.744Z,3.21
2022-08-14T15:30:32.776Z,3.06
2022-08-14T15:35:29.597Z,2.83
2022-08-14T15:40:34.535Z,3.05
2022-08-14T15:45:44.526Z,3.12
2022-08-14T15:50:46.647Z,3.15
2022-08-14T15:55:53.020Z,3.45
2022-08-14T16:01:03.606Z,3.19
2022-08-14T16:06:03.751Z,2.96
2022-08-14T16:11:03.750Z,3.14
2022-08-14T16:16:00.854Z,3.43
2022-08-14T16:21:12.242Z,3.41
2022-08-14T16:26:09.134Z,3.22
2022-08-14T16:31:18.356Z,3.40
2022-08-14T16:36:31.896Z,3.67
2022-08-14T16:41:29.605Z,3.09
2022-08-14T16:46:43.796Z,3.30
2022-08-14T16:51:43.144Z,3.27
2022-08-14T16:56:52.828Z,3.33
2022-08-14T17:01:54.702Z,3.24
2022-08-14T17:06:54.313Z,3.18
2022-08-14T17:17:02.589Z,3.56
2022-08-14T17:22:17.583Z,3.34
2022-08-14T17:27:20.168Z,3.10
2022-08-14T17:32:56.227Z,3.02
2022-08-14T17:37:27.017Z,3.55
2022-08-14T17:42:32.785Z,3.58
2022-08-14T17:47:51.801Z,3.35
2022-08-14T17:52:50.084Z,3.83
2022-08-14T17:57:47.988Z,3.32
2022-08-14T18:02:50.808Z,3.14
2022-08-14T18:08:31.601Z,3.00
2022-08-14T18:13:01.847Z,3.30
2022-08-14T18:18:04.408Z,3.34
2022-08-14T18:23:05.803Z,3.30
2022-08-14T18:28:15.820Z,3.27
2022-08-14T18:33:14.110Z,3.24
2022-08-14T18:38:43.048Z,3.84
2022-08-14T18:43:21.180Z,3.53
2022-08-14T18:48:21.817Z,3.09
2022-08-14T18:53:24.653Z,3.17
2022-08-14T18:58:44.341Z,2.89
2022-08-14T19:03:25.368Z,2.88
2022-08-14T19:08:26.070Z,2.67
2022-08-14T19:16:53.729Z,2.80
2022-08-14T19:18:39.979Z,3.78
2022-08-14T19:23:59.457Z,2.90
2022-08-14T19:37:06.000Z,2.95
2022-08-14T19:43:16.076Z,3.24
2022-08-14T19:48:36.569Z,3.13
2022-08-14T19:53:32.921Z,3.81
2022-08-14T19:58:54.667Z,3.29
2022-08-14T20:04:00.010Z,3.16
2022-08-14T20:10:59.817Z,3.30
2022-08-14T20:14:00.179Z,3.61
2022-08-14T20:19:21.619Z,3.40
2022-08-14T20:24:05.464Z,4.71
2022-08-14T20:29:05.028Z,3.21
2022-08-14T20:34:24.771Z,3.28
2022-08-14T20:39:18.726Z,3.49
2022-08-14T20:44:28.760Z,3.08
2022-08-14T20:49:20.676Z,3.36
2022-08-14T20:54:34.185Z,3.19
2022-08-14T20:59:38.367Z,3.41
2022-08-14T21:04:48.638Z,3.30
2022-08-14T21:10:35.396Z,4.73
2022-08-14T21:15:11.132Z,4.76
2022-08-14T21:20:26.224Z,3.57
2022-08-14T21:25:20.740Z,3.24
2022-08-14T21:30:15.529Z,5.10
2022-08-14T21:35:19.912Z,4.77
2022-08-14T21:40:41.868Z,3.18
2022-08-14T21:45:31.740Z,4.89
2022-08-14T21:50:39.422Z,3.35
2022-08-14T21:55:43.366Z,4.32
2022-08-14T22:00:49.605Z,4.74
2022-08-14T22:05:56.090Z,3.28
2022-08-14T22:11:02.386Z,3.73
2022-08-14T22:16:08.651Z,3.20
2022-08-14T22:21:16.976Z,3.43
2022-08-14T22:26:21.999Z,5.31
2022-08-14T22:31:33.942Z,5.14
2022-08-14T22:36:34.186Z,3.40
2022-08-14T22:41:43.053Z,3.35
2022-08-14T22:46:45.271Z,4.58
2022-08-14T22:51:50.677Z,3.51
2022-08-14T22:56:56.589Z,3.55
2022-08-14T23:02:03.747Z,3.36
2022-08-14T23:07:21.678Z,4.98
2022-08-14T23:12:27.459Z,3.17
2022-08-14T23:17:20.509Z,3.24
2022-08-14T23:22:26.821Z,2.87
2022-08-14T23:28:02.584Z,4.86
2022-08-14T23:32:39.241Z,3.14
2022-08-14T23:37:45.074Z,5.36
2022-08-14T23:42:51.637Z,4.51
2022-08-14T23:47:57.631Z,3.49
2022-08-14T23:53:07.240Z,3.18
2022-08-14T23:58:09.738Z,3.17
